sensor_id;sensor_type;location;lat;lon;timestamp;pressure;altitude;pressure_sealevel;temperature;humidity
60345;BME280;46188;52.324;8.032;2023-05-25T00:02:01;101423.03;;;8.53;100.00
60345;BME280;46188;52.324;8.032;2023-05-25T00:04:29;101421.41;;;8.57;100.00
60345;BME280;46188;52.324;8.032;2023-05-25T00:06:54;101412.91;;;8.64;100.00
60345;BME280;46188;52.324;8.032;2023-05-25T00:09:20;101414.03;;;8.72;100.00
60345;BME280;46188;52.324;8.032;2023-05-25T00:11:45;101411.78;;;8.83;100.00
60345;BME280;46188;52.324;8.032;2023-05-25T00:14:10;101418.88;;;8.85;100.00
60345;BME280;46188;52.324;8.032;2023-05-25T00:16:35;101418.22;;;8.93;100.00
60345;BME280;46188;52.324;8.032;2023-05-25T00:19:01;101421.81;;;8.95;100.00
60345;BME280;46188;52.324;8.032;2023-05-25T00:21:27;101412.22;;;8.97;100.00
60345;BME280;46188;52.324;8.032;2023-05-25T00:23:52;101414.78;;;8.95;100.00
60345;BME280;46188;52.324;8.032;2023-05-25T00:26:18;101413.13;;;8.97;100.00
60345;BME280;46188;52.324;8.032;2023-05-25T00:28:43;101415.75;;;8.97;100.00
60345;BME280;46188;52.324;8.032;2023-05-25T00:31:08;101412.09;;;8.92;100.00
60345;BME280;46188;52.324;8.032;2023-05-25T00:33:34;101413.63;;;8.85;100.00
60345;BME280;46188;52.324;8.032;2023-05-25T00:35:59;101412.91;;;8.91;100.00
60345;BME280;46188;52.324;8.032;2023-05-25T00:38:24;101415.66;;;8.94;100.00
60345;BME280;46188;52.324;8.032;2023-05-25T00:40:54;101412.31;;;9.00;100.00
60345;BME280;46188;52.324;8.032;2023-05-25T00:43:20;101415.16;;;9.06;100.00
60345;BME280;46188;52.324;8.032;2023-05-25T00:45:46;101417.06;;;9.12;100.00
60345;BME280;46188;52.324;8.032;2023-05-25T00:48:12;101416.44;;;9.19;100.00
60345;BME280;46188;52.324;8.032;2023-05-25T00:50:40;101415.63;;;9.21;100.00
60345;BME280;46188;52.324;8.032;2023-05-25T00:53:08;101414.91;;;9.26;100.00
60345;BME280;46188;52.324;8.032;2023-05-25T00:56:11;101415.00;;;9.29;100.00
60345;BME280;46188;52.324;8.032;2023-05-25T00:58:38;101417.63;;;9.29;100.00
60345;BME280;46188;52.324;8.032;2023-05-25T01:01:11;101410.56;;;9.28;100.00
60345;BME280;46188;52.324;8.032;2023-05-25T01:03:39;101414.19;;;9.31;100.00
60345;BME280;46188;52.324;8.032;2023-05-25T01:06:10;101416.03;;;9.34;100.00
60345;BME280;46188;52.324;8.032;2023-05-25T01:08:39;101415.09;;;9.32;100.00
60345;BME280;46188;52.324;8.032;2023-05-25T01:11:08;101417.81;;;9.35;100.00
60345;BME280;46188;52.324;8.032;2023-05-25T01:13:36;101414.44;;;9.39;100.00
60345;BME280;46188;52.324;8.032;2023-05-25T01:16:02;101410.00;;;9.38;100.00
60345;BME280;46188;52.324;8.032;2023-05-25T01:18:28;101411.91;;;9.42;100.00
60345;BME280;46188;52.324;8.032;2023-05-25T01:23:25;101403.25;;;9.46;100.00
60345;BME280;46188;52.324;8.032;2023-05-25T01:25:58;101411.13;;;9.46;100.00
60345;BME280;46188;52.324;8.032;2023-05-25T01:28:27;101419.94;;;9.47;100.00
60345;BME280;46188;52.324;8.032;2023-05-25T01:30:55;101429.66;;;9.49;100.00
60345;BME280;46188;52.324;8.032;2023-05-25T01:33:21;101427.19;;;9.54;100.00
60345;BME280;46188;52.324;8.032;2023-05-25T01:35:47;101421.91;;;9.54;100.00
60345;BME280;46188;52.324;8.032;2023-05-25T01:38:12;101419.09;;;9.48;100.00
60345;BME280;46188;52.324;8.032;2023-05-25T01:40:38;101415.47;;;9.44;100.00
60345;BME280;46188;52.324;8.032;2023-05-25T01:43:03;101415.38;;;9.41;100.00
60345;BME280;46188;52.324;8.032;2023-05-25T01:45:29;101409.97;;;9.36;100.00
60345;BME280;46188;52.324;8.032;2023-05-25T01:48:14;101412.38;;;9.29;100.00
60345;BME280;46188;52.324;8.032;2023-05-25T01:50:53;101409.50;;;9.21;100.00
60345;BME280;46188;52.324;8.032;2023-05-25T01:53:25;101408.41;;;9.14;100.00
60345;BME280;46188;52.324;8.032;2023-05-25T01:55:57;101423.25;;;9.12;100.00
60345;BME280;46188;52.324;8.032;2023-05-25T01:58:24;101422.28;;;9.10;100.00
60345;BME280;46188;52.324;8.032;2023-05-25T02:00:51;101430.19;;;9.10;100.00
60345;BME280;46188;52.324;8.032;2023-05-25T02:03:17;101416.97;;;9.07;100.00
60345;BME280;46188;52.324;8.032;2023-05-25T02:05:42;101423.06;;;9.06;100.00
60345;BME280;46188;52.324;8.032;2023-05-25T02:08:08;101426.72;;;9.11;100.00
60345;BME280;46188;52.324;8.032;2023-05-25T02:10:33;101429.34;;;9.11;100.00
60345;BME280;46188;52.324;8.032;2023-05-25T02:12:58;101430.28;;;9.13;100.00
60345;BME280;46188;52.324;8.032;2023-05-25T02:15:23;101432.09;;;9.14;100.00
60345;BME280;46188;52.324;8.032;2023-05-25T02:17:49;101436.50;;;9.15;100.00
60345;BME280;46188;52.324;8.032;2023-05-25T02:20:14;101428.56;;;9.14;100.00
60345;BME280;46188;52.324;8.032;2023-05-25T02:22:39;101436.41;;;9.12;100.00
60345;BME280;46188;52.324;8.032;2023-05-25T02:25:05;101425.69;;;9.06;100.00
60345;BME280;46188;52.324;8.032;2023-05-25T02:27:33;101428.25;;;9.04;100.00
60345;BME280;46188;52.324;8.032;2023-05-25T02:29:58;101425.78;;;9.09;100.00
60345;BME280;46188;52.324;8.032;2023-05-25T02:32:23;101431.25;;;9.15;100.00
60345;BME280;46188;52.324;8.032;2023-05-25T02:34:48;101431.38;;;9.20;100.00
60345;BME280;46188;52.324;8.032;2023-05-25T02:37:14;101435.84;;;9.22;100.00
60345;BME280;46188;52.324;8.032;2023-05-25T02:39:39;101425.53;;;9.29;100.00
60345;BME280;46188;52.324;8.032;2023-05-25T02:42:04;101427.34;;;9.31;100.00
60345;BME280;46188;52.324;8.032;2023-05-25T02:44:30;101422.13;;;9.33;100.00
60345;BME280;46188;52.324;8.032;2023-05-25T02:46:55;101423.13;;;9.36;100.00
60345;BME280;46188;52.324;8.032;2023-05-25T02:49:20;101435.50;;;9.39;100.00
60345;BME280;46188;52.324;8.032;2023-05-25T02:51:46;101438.97;;;9.38;100.00
60345;BME280;46188;52.324;8.032;2023-05-25T02:54:11;101439.91;;;9.40;100.00
60345;BME280;46188;52.324;8.032;2023-05-25T02:56:36;101443.50;;;9.42;100.00
60345;BME280;46188;52.324;8.032;2023-05-25T02:59:01;101446.28;;;9.47;100.00
60345;BME280;46188;52.324;8.032;2023-05-25T03:01:27;101453.34;;;9.49;100.00
60345;BME280;46188;52.324;8.032;2023-05-25T03:03:55;101445.41;;;9.48;100.00
60345;BME280;46188;52.324;8.032;2023-05-25T03:06:20;101448.13;;;9.51;100.00
60345;BME280;46188;52.324;8.032;2023-05-25T03:08:47;101442.94;;;9.52;100.00
60345;BME280;46188;52.324;8.032;2023-05-25T03:11:12;101442.94;;;9.52;100.00
60345;BME280;46188;52.324;8.032;2023-05-25T03:13:38;101446.38;;;9.51;100.00
60345;BME280;46188;52.324;8.032;2023-05-25T03:16:03;101448.13;;;9.51;100.00
60345;BME280;46188;52.324;8.032;2023-05-25T03:18:29;101437.50;;;9.48;100.00
60345;BME280;46188;52.324;8.032;2023-05-25T03:20:54;101443.72;;;9.50;100.00
60345;BME280;46188;52.324;8.032;2023-05-25T03:23:19;101449.03;;;9.51;100.00
60345;BME280;46188;52.324;8.032;2023-05-25T03:25:44;101447.38;;;9.55;100.00
60345;BME280;46188;52.324;8.032;2023-05-25T03:28:10;101445.75;;;9.58;100.00
60345;BME280;46188;52.324;8.032;2023-05-25T03:30:35;101455.28;;;9.55;100.00
60345;BME280;46188;52.324;8.032;2023-05-25T03:33:01;101458.88;;;9.57;100.00
60345;BME280;46188;52.324;8.032;2023-05-25T03:35:26;101453.50;;;9.54;100.00
60345;BME280;46188;52.324;8.032;2023-05-25T03:37:51;101450.09;;;9.58;100.00
60345;BME280;46188;52.324;8.032;2023-05-25T03:40:16;101452.88;;;9.63;100.00
60345;BME280;46188;52.324;8.032;2023-05-25T03:42:42;101458.25;;;9.66;100.00
60345;BME280;46188;52.324;8.032;2023-05-25T03:45:07;101457.47;;;9.68;100.00
60345;BME280;46188;52.324;8.032;2023-05-25T03:47:34;101460.81;;;9.64;100.00
60345;BME280;46188;52.324;8.032;2023-05-25T03:49:59;101460.97;;;9.69;100.00
60345;BME280;46188;52.324;8.032;2023-05-25T03:52:25;101463.31;;;9.59;100.00
60345;BME280;46188;52.324;8.032;2023-05-25T03:54:50;101458.88;;;9.57;100.00
60345;BME280;46188;52.324;8.032;2023-05-25T03:57:15;101465.22;;;9.64;100.00
60345;BME280;46188;52.324;8.032;2023-05-25T03:59:40;101475.06;;;9.71;100.00
60345;BME280;46188;52.324;8.032;2023-05-25T04:02:06;101467.28;;;9.74;100.00
60345;BME280;46188;52.324;8.032;2023-05-25T04:04:31;101462.25;;;9.82;100.00
60345;BME280;46188;52.324;8.032;2023-05-25T04:06:56;101468.50;;;9.85;100.00
60345;BME280;46188;52.324;8.032;2023-05-25T04:09:21;101462.34;;;9.86;100.00
60345;BME280;46188;52.324;8.032;2023-05-25T04:11:47;101465.09;;;9.89;100.00
60345;BME280;46188;52.324;8.032;2023-05-25T04:14:12;101466.97;;;9.93;100.00
60345;BME280;46188;52.324;8.032;2023-05-25T04:16:38;101459.09;;;9.93;100.00
60345;BME280;46188;52.324;8.032;2023-05-25T04:19:05;101462.66;;;9.95;100.00
60345;BME280;46188;52.324;8.032;2023-05-25T04:21:30;101463.56;;;9.97;100.00
60345;BME280;46188;52.324;8.032;2023-05-25T04:23:56;101465.28;;;9.95;100.00
60345;BME280;46188;52.324;8.032;2023-05-25T04:26:21;101468.59;;;9.88;100.00
60345;BME280;46188;52.324;8.032;2023-05-25T04:28:46;101474.88;;;9.93;100.00
60345;BME280;46188;52.324;8.032;2023-05-25T04:31:12;101475.97;;;10.00;100.00
60345;BME280;46188;52.324;8.032;2023-05-25T04:33:37;101476.97;;;10.05;100.00
60345;BME280;46188;52.324;8.032;2023-05-25T04:36:04;101475.41;;;10.12;100.00
60345;BME280;46188;52.324;8.032;2023-05-25T04:38:29;101472.91;;;10.16;100.00
60345;BME280;46188;52.324;8.032;2023-05-25T04:40:57;101478.34;;;10.23;100.00
60345;BME280;46188;52.324;8.032;2023-05-25T04:43:22;101478.53;;;10.29;100.00
60345;BME280;46188;52.324;8.032;2023-05-25T04:45:52;101474.31;;;10.34;100.00
60345;BME280;46188;52.324;8.032;2023-05-25T04:48:18;101480.53;;;10.36;100.00
60345;BME280;46188;52.324;8.032;2023-05-25T04:50:43;101483.28;;;10.41;100.00
60345;BME280;46188;52.324;8.032;2023-05-25T04:53:09;101487.56;;;10.37;100.00
60345;BME280;46188;52.324;8.032;2023-05-25T04:55:34;101481.59;;;10.43;100.00
60345;BME280;46188;52.324;8.032;2023-05-25T04:57:59;101489.63;;;10.47;100.00
60345;BME280;46188;52.324;8.032;2023-05-25T05:00:25;101489.84;;;10.55;100.00
60345;BME280;46188;52.324;8.032;2023-05-25T05:02:50;101492.66;;;10.61;100.00
60345;BME280;46188;52.324;8.032;2023-05-25T05:05:16;101483.03;;;10.63;100.00
60345;BME280;46188;52.324;8.032;2023-05-25T05:07:42;101486.63;;;10.67;100.00
60345;BME280;46188;52.324;8.032;2023-05-25T05:10:08;101491.19;;;10.73;100.00
60345;BME280;46188;52.324;8.032;2023-05-25T05:12:33;101496.56;;;10.77;100.00
60345;BME280;46188;52.324;8.032;2023-05-25T05:14:58;101488.63;;;10.76;100.00
60345;BME280;46188;52.324;8.032;2023-05-25T05:17:23;101498.28;;;10.75;100.00
60345;BME280;46188;52.324;8.032;2023-05-25T05:19:50;101508.84;;;10.75;100.00
60345;BME280;46188;52.324;8.032;2023-05-25T05:22:16;101509.56;;;10.69;100.00
60345;BME280;46188;52.324;8.032;2023-05-25T05:24:41;101511.25;;;10.66;100.00
60345;BME280;46188;52.324;8.032;2023-05-25T05:27:06;101519.16;;;10.66;100.00
60345;BME280;46188;52.324;8.032;2023-05-25T05:29:32;101517.56;;;10.73;100.00
60345;BME280;46188;52.324;8.032;2023-05-25T05:31:58;101521.38;;;10.84;100.00
60345;BME280;46188;52.324;8.032;2023-05-25T05:34:24;101519.91;;;10.95;100.00
60345;BME280;46188;52.324;8.032;2023-05-25T05:36:49;101518.31;;;11.02;100.00
60345;BME280;46188;52.324;8.032;2023-05-25T05:39:15;101524.69;;;11.10;100.00
60345;BME280;46188;52.324;8.032;2023-05-25T05:41:40;101527.38;;;11.12;100.00
60345;BME280;46188;52.324;8.032;2023-05-25T05:44:07;101530.06;;;11.13;100.00
60345;BME280;46188;52.324;8.032;2023-05-25T05:46:33;101535.34;;;11.13;100.00
60345;BME280;46188;52.324;8.032;2023-05-25T05:48:58;101537.03;;;11.11;100.00
60345;BME280;46188;52.324;8.032;2023-05-25T05:51:23;101532.47;;;11.05;100.00
60345;BME280;46188;52.324;8.032;2023-05-25T05:53:48;101539.47;;;11.03;100.00
60345;BME280;46188;52.324;8.032;2023-05-25T05:56:17;101548.31;;;11.04;100.00
60345;BME280;46188;52.324;8.032;2023-05-25T05:58:43;101536.72;;;10.99;100.00
60345;BME280;46188;52.324;8.032;2023-05-25T06:01:08;101550.78;;;10.98;100.00
60345;BME280;46188;52.324;8.032;2023-05-25T06:03:33;101553.25;;;10.92;100.00
60345;BME280;46188;52.324;8.032;2023-05-25T06:05:59;101562.88;;;10.89;100.00
60345;BME280;46188;52.324;8.032;2023-05-25T06:08:24;101561.09;;;10.90;100.00
60345;BME280;46188;52.324;8.032;2023-05-25T06:10:50;101568.41;;;11.00;100.00
60345;BME280;46188;52.324;8.032;2023-05-25T06:13:15;101565.09;;;11.07;100.00
60345;BME280;46188;52.324;8.032;2023-05-25T06:15:40;101564.09;;;11.02;100.00
60345;BME280;46188;52.324;8.032;2023-05-25T06:18:06;101562.25;;;11.00;100.00
60345;BME280;46188;52.324;8.032;2023-05-25T06:20:31;101570.91;;;10.94;100.00
60345;BME280;46188;52.324;8.032;2023-05-25T06:22:57;101567.41;;;10.95;100.00
60345;BME280;46188;52.324;8.032;2023-05-25T06:25:22;101570.16;;;11.00;100.00
60345;BME280;46188;52.324;8.032;2023-05-25T06:27:47;101568.75;;;11.13;100.00
60345;BME280;46188;52.324;8.032;2023-05-25T06:30:13;101566.25;;;11.17;100.00
60345;BME280;46188;52.324;8.032;2023-05-25T06:32:38;101579.56;;;11.23;100.00
60345;BME280;46188;52.324;8.032;2023-05-25T06:35:04;101571.06;;;11.34;100.00
60345;BME280;46188;52.324;8.032;2023-05-25T06:37:30;101567.91;;;11.49;100.00
60345;BME280;46188;52.324;8.032;2023-05-25T06:40:02;101583.91;;;11.55;100.00
60345;BME280;46188;52.324;8.032;2023-05-25T06:42:28;101576.28;;;11.67;100.00
60345;BME280;46188;52.324;8.032;2023-05-25T06:44:53;101580.13;;;11.81;100.00
60345;BME280;46188;52.324;8.032;2023-05-25T06:47:18;101576.00;;;11.91;100.00
60345;BME280;46188;52.324;8.032;2023-05-25T06:49:43;101579.22;;;12.17;100.00
60345;BME280;46188;52.324;8.032;2023-05-25T06:52:09;101579.84;;;12.45;100.00
60345;BME280;46188;52.324;8.032;2023-05-25T06:54:34;101580.44;;;12.74;100.00
60345;BME280;46188;52.324;8.032;2023-05-25T06:56:59;101581.66;;;12.92;100.00
60345;BME280;46188;52.324;8.032;2023-05-25T06:59:25;101583.91;;;13.18;100.00
60345;BME280;46188;52.324;8.032;2023-05-25T07:01:50;101577.28;;;13.41;100.00
60345;BME280;46188;52.324;8.032;2023-05-25T07:04:16;101581.06;;;13.56;100.00
60345;BME280;46188;52.324;8.032;2023-05-25T07:06:41;101578.28;;;13.48;100.00
60345;BME280;46188;52.324;8.032;2023-05-25T07:09:06;101589.31;;;13.25;100.00
60345;BME280;46188;52.324;8.032;2023-05-25T07:11:31;101588.16;;;13.09;100.00
60345;BME280;46188;52.324;8.032;2023-05-25T07:13:57;101592.50;;;13.06;100.00
60345;BME280;46188;52.324;8.032;2023-05-25T07:16:22;101596.56;;;12.88;100.00
60345;BME280;46188;52.324;8.032;2023-05-25T07:18:47;101603.47;;;12.80;100.00
60345;BME280;46188;52.324;8.032;2023-05-25T07:21:13;101599.53;;;13.05;100.00
60345;BME280;46188;52.324;8.032;2023-05-25T07:23:38;101596.50;;;13.83;100.00
60345;BME280;46188;52.324;8.032;2023-05-25T07:26:06;101597.09;;;14.25;100.00
60345;BME280;46188;52.324;8.032;2023-05-25T07:28:31;101602.66;;;14.45;100.00
60345;BME280;46188;52.324;8.032;2023-05-25T07:30:57;101608.25;;;14.62;100.00
60345;BME280;46188;52.324;8.032;2023-05-25T07:33:22;101599.84;;;14.98;100.00
60345;BME280;46188;52.324;8.032;2023-05-25T07:35:47;101603.69;;;15.29;97.74
60345;BME280;46188;52.324;8.032;2023-05-25T07:38:13;101608.28;;;14.63;97.42
60345;BME280;46188;52.324;8.032;2023-05-25T07:40:38;101607.31;;;13.95;100.00
60345;BME280;46188;52.324;8.032;2023-05-25T07:43:03;101615.00;;;13.80;100.00
60345;BME280;46188;52.324;8.032;2023-05-25T07:45:29;101619.28;;;13.72;100.00
60345;BME280;46188;52.324;8.032;2023-05-25T07:47:54;101624.31;;;13.56;100.00
60345;BME280;46188;52.324;8.032;2023-05-25T07:50:20;101625.06;;;13.47;100.00
60345;BME280;46188;52.324;8.032;2023-05-25T07:52:45;101637.16;;;13.33;100.00
60345;BME280;46188;52.324;8.032;2023-05-25T07:55:10;101635.34;;;13.31;100.00
60345;BME280;46188;52.324;8.032;2023-05-25T07:57:36;101630.31;;;13.44;100.00
60345;BME280;46188;52.324;8.032;2023-05-25T08:00:02;101629.47;;;13.45;100.00
60345;BME280;46188;52.324;8.032;2023-05-25T08:02:30;101629.66;;;13.12;100.00
60345;BME280;46188;52.324;8.032;2023-05-25T08:04:55;101637.59;;;13.12;100.00
60345;BME280;46188;52.324;8.032;2023-05-25T08:07:20;101637.81;;;13.21;100.00
60345;BME280;46188;52.324;8.032;2023-05-25T08:09:46;101646.66;;;13.23;100.00
60345;BME280;46188;52.324;8.032;2023-05-25T08:12:11;101646.50;;;13.14;100.00
60345;BME280;46188;52.324;8.032;2023-05-25T08:14:37;101649.56;;;12.91;100.00
60345;BME280;46188;52.324;8.032;2023-05-25T08:17:02;101646.81;;;12.87;100.00
60345;BME280;46188;52.324;8.032;2023-05-25T08:19:29;101648.72;;;12.94;100.00
60345;BME280;46188;52.324;8.032;2023-05-25T08:21:56;101644.97;;;13.28;100.00
60345;BME280;46188;52.324;8.032;2023-05-25T08:24:21;101654.06;;;13.40;100.00
60345;BME280;46188;52.324;8.032;2023-05-25T08:26:46;101647.94;;;13.42;100.00
60345;BME280;46188;52.324;8.032;2023-05-25T08:29:12;101645.34;;;13.47;100.00
60345;BME280;46188;52.324;8.032;2023-05-25T08:31:38;101646.91;;;13.34;100.00
60345;BME280;46188;52.324;8.032;2023-05-25T08:34:05;101646.66;;;13.23;100.00
60345;BME280;46188;52.324;8.032;2023-05-25T08:36:31;101657.88;;;13.10;100.00
60345;BME280;46188;52.324;8.032;2023-05-25T08:38:59;101657.72;;;13.02;100.00
60345;BME280;46188;52.324;8.032;2023-05-25T08:41:25;101660.28;;;12.98;100.00
60345;BME280;46188;52.324;8.032;2023-05-25T08:43:50;101657.69;;;12.99;100.00
60345;BME280;46188;52.324;8.032;2023-05-25T08:46:27;101664.06;;;13.10;100.00
60345;BME280;46188;52.324;8.032;2023-05-25T08:48:58;101662.66;;;13.29;100.00
60345;BME280;46188;52.324;8.032;2023-05-25T08:51:25;101663.56;;;13.30;100.00
60345;BME280;46188;52.324;8.032;2023-05-25T08:53:54;101661.03;;;13.35;100.00
60345;BME280;46188;52.324;8.032;2023-05-25T08:56:25;101664.53;;;13.34;100.00
60345;BME280;46188;52.324;8.032;2023-05-25T08:59:05;101662.81;;;13.36;100.00
60345;BME280;46188;52.324;8.032;2023-05-25T09:01:38;101663.91;;;13.45;100.00
60345;BME280;46188;52.324;8.032;2023-05-25T09:04:07;101665.91;;;13.59;100.00
60345;BME280;46188;52.324;8.032;2023-05-25T09:06:33;101666.06;;;13.70;99.51
60345;BME280;46188;52.324;8.032;2023-05-25T09:09:03;101666.28;;;13.82;97.68
60345;BME280;46188;52.324;8.032;2023-05-25T09:11:28;101662.09;;;13.96;96.81
60345;BME280;46188;52.324;8.032;2023-05-25T09:13:53;101661.66;;;14.25;95.59
60345;BME280;46188;52.324;8.032;2023-05-25T09:16:21;101664.75;;;14.56;93.90
60345;BME280;46188;52.324;8.032;2023-05-25T09:18:47;101665.78;;;14.64;92.93
60345;BME280;46188;52.324;8.032;2023-05-25T09:21:13;101668.13;;;14.46;92.30
60345;BME280;46188;52.324;8.032;2023-05-25T09:23:38;101671.34;;;14.23;93.29
60345;BME280;46188;52.324;8.032;2023-05-25T09:26:04;101670.19;;;14.04;93.22
60345;BME280;46188;52.324;8.032;2023-05-25T09:28:29;101683.00;;;13.78;94.03
60345;BME280;46188;52.324;8.032;2023-05-25T09:30:55;101682.78;;;13.65;95.11
60345;BME280;46188;52.324;8.032;2023-05-25T09:33:20;101682.78;;;13.65;95.60
60345;BME280;46188;52.324;8.032;2023-05-25T09:35:46;101689.16;;;13.77;95.60
60345;BME280;46188;52.324;8.032;2023-05-25T09:38:13;101690.22;;;13.88;95.08
60345;BME280;46188;52.324;8.032;2023-05-25T09:40:39;101684.25;;;14.01;95.04
60345;BME280;46188;52.324;8.032;2023-05-25T09:43:04;101678.25;;;14.12;93.79
60345;BME280;46188;52.324;8.032;2023-05-25T09:45:30;101683.47;;;14.06;93.90
60345;BME280;46188;52.324;8.032;2023-05-25T09:47:56;101680.91;;;14.12;93.44
60345;BME280;46188;52.324;8.032;2023-05-25T09:50:21;101689.00;;;14.21;93.08
60345;BME280;46188;52.324;8.032;2023-05-25T09:52:47;101681.22;;;14.32;92.35
60345;BME280;46188;52.324;8.032;2023-05-25T09:55:12;101679.72;;;14.51;90.94
60345;BME280;46188;52.324;8.032;2023-05-25T09:57:38;101673.59;;;14.55;89.99
60345;BME280;46188;52.324;8.032;2023-05-25T10:00:05;101677.16;;;14.57;89.18
60345;BME280;46188;52.324;8.032;2023-05-25T10:02:30;101680.94;;;14.71;88.50
60345;BME280;46188;52.324;8.032;2023-05-25T10:04:56;101680.97;;;14.77;87.62
60345;BME280;46188;52.324;8.032;2023-05-25T10:07:21;101675.75;;;14.84;87.61
60345;BME280;46188;52.324;8.032;2023-05-25T10:09:49;101682.00;;;14.89;87.60
60345;BME280;46188;52.324;8.032;2023-05-25T10:12:16;101676.66;;;14.84;87.23
60345;BME280;46188;52.324;8.032;2023-05-25T10:14:43;101686.34;;;14.81;87.20
60345;BME280;46188;52.324;8.032;2023-05-25T10:17:10;101685.47;;;14.82;87.34
60345;BME280;46188;52.324;8.032;2023-05-25T10:19:50;101678.31;;;14.76;86.96
60345;BME280;46188;52.324;8.032;2023-05-25T10:22:20;101678.13;;;14.62;87.46
60345;BME280;46188;52.324;8.032;2023-05-25T10:24:52;101688.56;;;14.50;87.77
60345;BME280;46188;52.324;8.032;2023-05-25T10:27:19;101691.41;;;14.62;87.18
60345;BME280;46188;52.324;8.032;2023-05-25T10:29:47;101687.56;;;15.09;86.44
60345;BME280;46188;52.324;8.032;2023-05-25T10:32:15;101684.94;;;15.96;82.94
60345;BME280;46188;52.324;8.032;2023-05-25T10:34:40;101675.63;;;16.60;79.75
60345;BME280;46188;52.324;8.032;2023-05-25T10:37:06;101686.50;;;17.00;77.35
60345;BME280;46188;52.324;8.032;2023-05-25T10:39:33;101689.06;;;16.85;76.06
60345;BME280;46188;52.324;8.032;2023-05-25T10:42:00;101673.88;;;16.64;76.76
60345;BME280;46188;52.324;8.032;2023-05-25T10:44:27;101683.72;;;16.83;76.56
60345;BME280;46188;52.324;8.032;2023-05-25T10:46:53;101686.22;;;16.52;76.33
60345;BME280;46188;52.324;8.032;2023-05-25T10:49:26;101690.50;;;16.26;76.74
60345;BME280;46188;52.324;8.032;2023-05-25T10:51:56;101689.44;;;16.05;77.11
60345;BME280;46188;52.324;8.032;2023-05-25T10:54:30;101692.84;;;15.89;78.16
60345;BME280;46188;52.324;8.032;2023-05-25T10:57:09;101687.25;;;15.64;79.22
60345;BME280;46188;52.324;8.032;2023-05-25T10:59:35;101695.03;;;15.42;80.67
60345;BME280;46188;52.324;8.032;2023-05-25T11:02:05;101687.22;;;15.56;80.28
60345;BME280;46188;52.324;8.032;2023-05-25T11:04:30;101690.13;;;15.79;80.01
60345;BME280;46188;52.324;8.032;2023-05-25T11:09:27;101675.91;;;17.26;74.04
60345;BME280;46188;52.324;8.032;2023-05-25T11:17:19;101676.66;;;16.85;72.74
60345;BME280;46188;52.324;8.032;2023-05-25T11:19:50;101666.69;;;16.47;74.58
60345;BME280;46188;52.324;8.032;2023-05-25T11:22:22;101669.25;;;16.36;75.31
60345;BME280;46188;52.324;8.032;2023-05-25T11:24:51;101673.72;;;16.39;75.69
60345;BME280;46188;52.324;8.032;2023-05-25T11:27:26;101678.16;;;16.41;75.64
60345;BME280;46188;52.324;8.032;2023-05-25T11:29:52;101680.16;;;16.84;73.99
60345;BME280;46188;52.324;8.032;2023-05-25T11:32:18;101670.59;;;17.39;73.00
60345;BME280;46188;52.324;8.032;2023-05-25T11:34:46;101670.69;;;17.93;70.71
60345;BME280;46188;52.324;8.032;2023-05-25T11:37:15;101667.00;;;18.68;68.19
60345;BME280;46188;52.324;8.032;2023-05-25T11:39:41;101666.19;;;18.46;67.41
60345;BME280;46188;52.324;8.032;2023-05-25T11:42:11;101662.63;;;18.33;66.09
60345;BME280;46188;52.324;8.032;2023-05-25T11:44:36;101660.88;;;17.79;67.44
60345;BME280;46188;52.324;8.032;2023-05-25T11:47:06;101661.75;;;17.57;68.17
60345;BME280;46188;52.324;8.032;2023-05-25T11:49:58;101660.81;;;17.38;69.99
60345;BME280;46188;52.324;8.032;2023-05-25T11:52:23;101654.63;;;17.40;70.29
60345;BME280;46188;52.324;8.032;2023-05-25T11:54:48;101652.84;;;17.44;70.09
60345;BME280;46188;52.324;8.032;2023-05-25T11:57:19;101648.38;;;17.27;70.27
60345;BME280;46188;52.324;8.032;2023-05-25T11:59:48;101657.19;;;17.03;70.04
60345;BME280;46188;52.324;8.032;2023-05-25T12:02:15;101655.38;;;16.90;70.64
60345;BME280;46188;52.324;8.032;2023-05-25T12:04:40;101648.19;;;16.75;70.53
60345;BME280;46188;52.324;8.032;2023-05-25T12:07:07;101649.88;;;16.60;70.94
60345;BME280;46188;52.324;8.032;2023-05-25T12:09:33;101640.06;;;16.55;71.84
60345;BME280;46188;52.324;8.032;2023-05-25T12:11:59;101642.78;;;16.64;71.34
60345;BME280;46188;52.324;8.032;2023-05-25T12:14:26;101639.28;;;16.76;71.11
60345;BME280;46188;52.324;8.032;2023-05-25T12:16:52;101641.13;;;16.86;71.13
60345;BME280;46188;52.324;8.032;2023-05-25T12:19:17;101639.56;;;17.95;68.43
60345;BME280;46188;52.324;8.032;2023-05-25T12:21:43;101631.47;;;18.36;66.14
60345;BME280;46188;52.324;8.032;2023-05-25T12:24:09;101628.66;;;18.83;65.19
60345;BME280;46188;52.324;8.032;2023-05-25T12:26:52;101625.22;;;18.43;64.31
60345;BME280;46188;52.324;8.032;2023-05-25T12:29:26;101626.19;;;18.16;65.43
60345;BME280;46188;52.324;8.032;2023-05-25T12:31:52;101622.59;;;18.22;64.56
60345;BME280;46188;52.324;8.032;2023-05-25T12:34:26;101620.88;;;17.93;64.64
60345;BME280;46188;52.324;8.032;2023-05-25T12:36:53;101622.63;;;17.79;65.11
60345;BME280;46188;52.324;8.032;2023-05-25T12:41:53;101608.34;;;18.37;62.58
60345;BME280;46188;52.324;8.032;2023-05-25T12:46:45;101607.19;;;18.99;60.99
60345;BME280;46188;52.324;8.032;2023-05-25T12:49:21;101611.66;;;19.05;59.81
60345;BME280;46188;52.324;8.032;2023-05-25T12:51:47;101609.88;;;19.01;60.35
60345;BME280;46188;52.324;8.032;2023-05-25T12:54:12;101609.97;;;18.73;60.08
60345;BME280;46188;52.324;8.032;2023-05-25T12:56:56;101612.72;;;18.58;60.84
60345;BME280;46188;52.324;8.032;2023-05-25T12:59:21;101610.97;;;18.49;61.34